Time;durP1;ratioP1;P1;durP2;ratioP2;P2;SDS_P1;SDS_P2;PMS_P1;PMS_P2;Temp;Humidity;BMP_temperature;BMP_pressure;BME280_temperature;BME280_humidity;BME280_pressure;Samples;Min_cycle;Max_cycle;Signal;HPM_P1;HPM_P2
2023/07/27 00:00:53;;;;;;;3.40;2.10;;;;;;;21.19;51.38;101005.28;5029047;28;20050;-72
2023/07/27 00:03:18;;;;;;;4.40;2.47;;;;;;;21.19;51.29;100995.53;5029101;28;20065;-73
2023/07/27 00:05:44;;;;;;;3.45;2.55;;;;;;;21.18;51.73;100998.31;5028121;28;20037;-72
2023/07/27 00:08:10;;;;;;;3.47;2.20;;;;;;;21.10;51.39;100986.00;5032769;28;20057;-71
2023/07/27 00:10:35;;;;;;;5.05;2.15;;;;;;;21.16;51.40;100995.03;5031200;28;20482;-73
2023/07/27 00:13:01;;;;;;;3.60;2.30;;;;;;;21.13;51.64;100993.59;5040734;28;20042;-72
2023/07/27 00:15:26;;;;;;;2.70;2.17;;;;;;;21.16;51.41;100982.63;5031538;28;20049;-72
2023/07/27 00:17:52;;;;;;;4.28;2.70;;;;;;;21.17;51.37;100988.75;5035875;28;20475;-72
2023/07/27 00:20:17;;;;;;;2.78;2.05;;;;;;;21.15;51.54;100980.16;5031261;28;20443;-72
2023/07/27 00:22:43;;;;;;;3.17;2.25;;;;;;;21.05;51.54;100965.41;5033382;28;20041;-73
2023/07/27 00:25:08;;;;;;;2.63;2.25;;;;;;;21.16;51.23;100974.69;5034584;28;20045;-72
2023/07/27 00:27:34;;;;;;;3.22;2.53;;;;;;;21.13;51.47;100975.88;5033733;28;20043;-73
2023/07/27 00:30:00;;;;;;;3.40;2.75;;;;;;;21.14;51.37;100976.69;5030581;28;20033;-73
2023/07/27 00:32:26;;;;;;;3.05;2.20;;;;;;;21.12;51.40;100978.72;5039608;28;20052;-73
2023/07/27 00:34:51;;;;;;;3.30;2.17;;;;;;;21.12;51.36;100971.59;5029796;28;20029;-71
2023/07/27 00:37:17;;;;;;;3.85;2.42;;;;;;;21.10;51.55;100970.13;5031138;28;20041;-71
2023/07/27 00:39:43;;;;;;;3.95;2.38;;;;;;;21.09;51.39;100971.13;5032279;28;20086;-73
2023/07/27 00:42:08;;;;;;;3.63;2.47;;;;;;;21.08;51.41;100964.19;5030046;28;20119;-73
2023/07/27 00:44:34;;;;;;;3.05;2.22;;;;;;;21.11;51.57;100963.81;5026707;28;20510;-72
2023/07/27 00:46:59;;;;;;;2.60;2.00;;;;;;;21.10;51.57;100952.41;5029661;28;20033;-73
2023/07/27 00:49:25;;;;;;;4.47;2.45;;;;;;;21.13;51.31;100959.16;5026491;28;20041;-73
2023/07/27 00:51:51;;;;;;;4.28;2.35;;;;;;;21.12;51.49;100954.88;5042090;28;20072;-72
2023/07/27 00:54:17;;;;;;;3.60;2.42;;;;;;;21.10;51.54;100954.25;5028105;28;20040;-73
2023/07/27 00:56:43;;;;;;;3.03;2.30;;;;;;;21.09;51.61;100960.53;5029865;28;20041;-72
2023/07/27 00:59:09;;;;;;;3.15;2.28;;;;;;;21.08;51.39;100941.19;5028882;28;20040;-72
2023/07/27 01:01:34;;;;;;;3.40;2.30;;;;;;;21.08;51.51;100950.97;5041011;28;20046;-73
2023/07/27 01:04:00;;;;;;;3.20;2.28;;;;;;;20.98;51.46;100918.66;5028876;28;20058;-73
2023/07/27 01:06:26;;;;;;;3.88;2.47;;;;;;;21.09;51.59;100940.19;5026724;28;20045;-73
2023/07/27 01:08:53;;;;;;;3.92;2.45;;;;;;;21.06;51.66;100937.09;5028601;28;20049;-72
2023/07/27 01:11:28;;;;;;;2.90;2.17;;;;;;;20.95;51.60;100917.19;5027322;28;20021;-73
2023/07/27 01:14:07;;;;;;;3.05;2.20;;;;;;;21.05;51.50;100930.97;5061948;28;20038;-73
2023/07/27 01:16:46;;;;;;;3.53;2.63;;;;;;;21.04;51.65;100921.38;5028973;28;20501;-73
2023/07/27 01:19:48;;;;;;;4.55;2.50;;;;;;;21.05;51.54;100916.91;5031633;28;20040;-72
2023/07/27 01:22:20;;;;;;;3.10;2.15;;;;;;;21.04;51.46;100921.38;5028474;28;20095;-72
2023/07/27 01:25:05;;;;;;;3.70;2.20;;;;;;;21.02;51.59;100910.16;5029050;28;20045;-73
2023/07/27 01:28:00;;;;;;;2.85;2.15;;;;;;;21.02;51.34;100902.22;5029571;28;20033;-72
2023/07/27 01:30:28;;;;;;;3.30;2.10;;;;;;;21.03;51.48;100903.03;5028180;28;20060;-72
2023/07/27 01:33:08;;;;;;;3.83;2.70;;;;;;;21.06;51.36;100889.44;5031015;28;20512;-72
2023/07/27 01:35:46;;;;;;;;;;;;;;;21.03;51.55;100890.63;5029901;28;20037;-72
2023/07/27 01:38:13;;;;;;;2.97;2.20;;;;;;;21.01;51.68;100889.19;5032167;28;19917;-71
2023/07/27 01:40:42;;;;;;;2.47;2.10;;;;;;;20.93;51.42;100876.84;5029763;28;20030;-72
2023/07/27 01:43:10;;;;;;;3.40;2.40;;;;;;;21.02;51.37;100886.34;5030486;28;20878;-74
2023/07/27 01:45:38;;;;;;;3.35;2.20;;;;;;;21.04;51.17;100886.97;5031049;28;20117;-73
2023/07/27 01:48:05;;;;;;;2.97;2.40;;;;;;;21.02;51.44;100874.94;5029329;28;20061;-72
2023/07/27 01:50:32;;;;;;;3.05;2.25;;;;;;;21.04;51.28;100871.09;5030849;28;20034;-73
2023/07/27 01:52:59;;;;;;;3.15;2.35;;;;;;;21.00;51.52;100861.84;5029789;28;20052;-73
2023/07/27 01:55:26;;;;;;;3.03;2.40;;;;;;;21.00;51.52;100864.50;5026684;28;20037;-73
2023/07/27 01:57:53;;;;;;;3.53;2.38;;;;;;;21.00;51.56;100871.63;5030788;28;20042;-73
2023/07/27 02:00:19;;;;;;;2.72;2.30;;;;;;;20.81;51.58;100839.44;5041540;28;20037;-73
2023/07/27 02:02:45;;;;;;;2.65;2.22;;;;;;;20.99;51.31;100865.50;5033833;28;20050;-74
2023/07/27 02:05:12;;;;;;;3.35;2.70;;;;;;;20.99;51.51;100856.75;5044179;28;20034;-72
2023/07/27 02:07:38;;;;;;;3.00;2.42;;;;;;;20.92;51.64;100832.84;5027243;28;20105;-72
2023/07/27 02:10:04;;;;;;;4.55;2.20;;;;;;;20.99;51.25;100844.34;5042837;28;20061;-73
2023/07/27 02:12:34;;;;;;;2.47;2.10;;;;;;;20.96;51.43;100847.34;5022342;28;21972;-71
2023/07/27 02:15:10;;;;;;;3.47;2.13;;;;;;;20.97;51.29;100841.06;5041888;28;20038;-73
2023/07/27 02:17:44;;;;;;;4.20;2.28;;;;;;;20.98;51.29;100833.94;5027163;28;20046;-73
2023/07/27 02:20:12;;;;;;;2.30;1.80;;;;;;;20.95;51.58;100840.41;5028347;28;20539;-72
2023/07/27 02:22:40;;;;;;;3.08;2.33;;;;;;;20.97;51.45;100838.41;5030361;28;20033;-73
2023/07/27 02:25:06;;;;;;;11.73;2.92;;;;;;;20.85;51.42;100813.44;5027400;28;20038;-73
2023/07/27 02:27:33;;;;;;;3.35;2.40;;;;;;;20.95;51.38;100824.53;5033862;28;20041;-70
2023/07/27 02:30:00;;;;;;;3.10;2.38;;;;;;;20.97;51.24;100821.69;5034609;28;20112;-72
2023/07/27 02:32:27;;;;;;;4.80;2.50;;;;;;;20.97;51.20;100821.69;5048259;28;20061;-73
2023/07/27 02:34:52;;;;;;;2.92;2.25;;;;;;;20.93;51.33;100817.78;5035345;28;20029;-73
2023/07/27 02:37:18;;;;;;;2.72;1.92;;;;;;;20.96;51.51;100815.59;5032643;28;20057;-73
2023/07/27 02:39:44;;;;;;;3.35;2.13;;;;;;;20.96;51.67;100812.13;5035241;28;20041;-73
2023/07/27 02:42:10;;;;;;;2.75;2.30;;;;;;;20.94;51.50;100806.19;5032203;28;20041;-73
2023/07/27 02:44:35;;;;;;;2.90;2.00;;;;;;;20.94;51.28;100807.03;5032905;28;20034;-71
2023/07/27 02:47:01;;;;;;;2.63;1.98;;;;;;;20.96;51.20;100804.19;5035725;28;20048;-73
2023/07/27 02:49:26;;;;;;;3.10;2.33;;;;;;;20.89;51.56;100795.38;5034521;28;20045;-73
2023/07/27 02:51:52;;;;;;;3.45;2.10;;;;;;;20.94;51.32;100804.38;5019092;28;20029;-72
2023/07/27 02:54:18;;;;;;;2.95;2.25;;;;;;;20.94;51.29;100800.91;5047318;28;20407;-72
2023/07/27 02:56:43;;;;;;;4.85;2.72;;;;;;;20.84;51.39;100782.69;5036754;28;20041;-71
2023/07/27 02:59:09;;;;;;;3.85;2.55;;;;;;;20.86;51.39;100782.50;5035603;28;20043;-72
2023/07/27 03:01:46;;;;;;;3.15;2.03;;;;;;;20.94;51.45;100796.44;5016467;28;20060;-72
2023/07/27 03:04:20;;;;;;;3.55;2.72;;;;;;;20.92;51.21;100787.03;5033534;28;20092;-71
2023/07/27 03:06:45;;;;;;;2.45;2.05;;;;;;;20.92;51.32;100787.03;5032453;28;20037;-72
2023/07/27 03:09:12;;;;;;;3.20;2.42;;;;;;;20.94;51.22;100785.84;5034461;28;20557;-72
2023/07/27 03:11:39;;;;;;;3.88;2.40;;;;;;;20.93;51.48;100781.56;5033048;28;20105;-72
2023/07/27 03:14:04;;;;;;;3.03;2.30;;;;;;;20.87;51.24;100763.78;5031468;28;20044;-72
2023/07/27 03:16:31;;;;;;;4.03;2.53;;;;;;;20.90;51.11;100770.53;5030275;28;20052;-72
2023/07/27 03:18:56;;;;;;;5.22;3.05;;;;;;;20.92;51.16;100769.34;5046531;28;20072;-72
2023/07/27 03:21:22;;;;;;;4.57;2.83;;;;;;;20.88;51.47;100754.84;5034319;28;20060;-71
2023/07/27 03:23:49;;;;;;;2.85;2.08;;;;;;;20.93;51.15;100757.72;5047628;28;20057;-72
2023/07/27 03:26:15;;;;;;;3.50;2.40;;;;;;;20.93;51.38;100752.44;5033385;28;20064;-73
2023/07/27 03:28:41;;;;;;;2.88;2.08;;;;;;;20.91;51.49;100748.34;5033108;28;20399;-72
2023/07/27 03:31:22;;;;;;;3.15;2.13;;;;;;;20.91;51.17;100759.75;5031477;28;20044;-72
2023/07/27 03:33:47;;;;;;;3.38;2.63;;;;;;;20.88;51.40;100757.50;5047312;28;20082;-71
2023/07/27 03:36:16;;;;;;;2.55;2.20;;;;;;;20.93;51.05;100759.56;5024982;28;20475;-72
2023/07/27 03:38:42;;;;;;;4.10;2.33;;;;;;;20.75;51.43;100721.13;5027289;28;20030;-72
2023/07/27 03:41:08;;;;;;;4.43;2.47;;;;;;;20.88;51.10;100752.19;5032892;28;20048;-72
2023/07/27 03:43:34;;;;;;;3.30;2.33;;;;;;;20.91;51.26;100754.47;5045714;28;20125;-72
2023/07/27 03:46:00;;;;;;;3.05;2.08;;;;;;;20.80;51.26;100739.06;5030983;28;20076;-71
2023/07/27 03:48:25;;;;;;;3.45;2.50;;;;;;;20.90;51.21;100750.19;5033799;28;20101;-71
2023/07/27 03:50:52;;;;;;;3.97;2.70;;;;;;;20.90;51.25;100746.72;5030586;28;20040;-72
2023/07/27 03:53:18;;;;;;;3.00;2.50;;;;;;;20.72;51.36;100715.38;5048772;28;20716;-72
2023/07/27 03:55:44;;;;;;;3.38;2.35;;;;;;;20.74;51.38;100718.66;5031297;28;20037;-72
2023/07/27 03:58:10;;;;;;;4.15;2.78;;;;;;;20.86;51.10;100735.69;5030950;28;20194;-72
2023/07/27 04:00:35;;;;;;;3.40;2.40;;;;;;;20.90;51.10;100731.66;5028989;28;20641;-72
2023/07/27 04:03:01;;;;;;;3.28;2.50;;;;;;;20.92;51.23;100731.44;5033759;28;20063;-72
2023/07/27 04:05:27;;;;;;;3.25;2.25;;;;;;;20.89;51.31;100729.19;5027399;28;20120;-72
2023/07/27 04:07:52;;;;;;;3.15;2.35;;;;;;;20.86;51.27;100722.44;5027522;28;20038;-72
2023/07/27 04:10:18;;;;;;;3.60;2.50;;;;;;;20.84;51.25;100715.72;5033522;28;20605;-72
2023/07/27 04:12:44;;;;;;;3.22;2.50;;;;;;;20.88;51.24;100711.69;5045074;28;20108;-71
2023/07/27 04:15:10;;;;;;;3.20;2.30;;;;;;;20.90;50.95;100707.00;5045707;28;20033;-72
2023/07/27 04:17:36;;;;;;;3.13;2.33;;;;;;;20.92;51.26;100711.09;5031870;28;20033;-72
2023/07/27 04:20:02;;;;;;;3.38;2.40;;;;;;;20.91;51.09;100711.28;5033464;28;20811;-72
2023/07/27 04:22:27;;;;;;;3.00;2.40;;;;;;;20.88;51.34;100709.03;5028541;28;20043;-72
2023/07/27 04:24:53;;;;;;;3.28;2.28;;;;;;;20.76;51.14;100676.94;5028826;28;21455;-72
2023/07/27 04:27:18;;;;;;;2.95;2.13;;;;;;;20.89;51.11;100703.53;5032798;28;20484;-71
2023/07/27 04:29:44;;;;;;;3.75;2.50;;;;;;;20.88;51.18;100698.44;5031040;28;20045;-72
2023/07/27 04:32:09;;;;;;;3.65;2.70;;;;;;;20.86;51.31;100692.53;5027651;28;20033;-71
2023/07/27 04:34:35;;;;;;;3.60;2.70;;;;;;;20.85;51.44;100685.59;5030306;28;20048;-73
2023/07/27 04:37:00;;;;;;;3.38;2.42;;;;;;;20.85;51.21;100683.75;5047407;28;20045;-72
2023/07/27 04:39:26;;;;;;;2.88;2.15;;;;;;;20.86;51.43;100689.88;5030066;28;20064;-71
2023/07/27 04:41:52;;;;;;;4.10;2.63;;;;;;;20.87;51.03;100684.38;5041327;28;20033;-71
2023/07/27 04:44:17;;;;;;;3.58;2.60;;;;;;;20.89;51.15;100674.44;5026507;28;20493;-72
2023/07/27 04:46:43;;;;;;;4.38;2.72;;;;;;;20.87;51.06;100679.09;5031929;28;21749;-71
2023/07/27 04:49:09;;;;;;;3.58;2.50;;;;;;;20.83;51.37;100664.63;5025144;28;20045;-72
2023/07/27 04:51:34;;;;;;;3.05;2.40;;;;;;;20.87;51.25;100668.50;5027884;28;20045;-71
2023/07/27 04:54:01;;;;;;;3.20;2.42;;;;;;;20.88;51.23;100666.69;5026890;28;20038;-72
2023/07/27 04:56:26;;;;;;;3.35;2.42;;;;;;;20.87;51.13;100671.16;5030918;28;20102;-72
2023/07/27 04:58:52;;;;;;;3.22;2.28;;;;;;;20.87;51.37;100665.84;5026319;28;20650;-72
2023/07/27 05:01:17;;;;;;;3.53;2.50;;;;;;;20.79;51.34;100655.38;5033088;28;20059;-72
2023/07/27 05:03:43;;;;;;;3.58;2.47;;;;;;;20.85;51.26;100667.88;5029904;28;20052;-72
2023/07/27 05:06:08;;;;;;;3.40;2.60;;;;;;;20.86;51.15;100660.75;5028953;28;20044;-72
2023/07/27 05:08:34;;;;;;;3.35;2.50;;;;;;;20.85;51.20;100659.13;5027324;28;20045;-72
2023/07/27 05:11:02;;;;;;;3.47;2.50;;;;;;;20.83;51.32;100656.66;5030370;28;20115;-72
2023/07/27 05:13:28;;;;;;;3.22;2.47;;;;;;;20.83;51.21;100650.56;5030931;28;20029;-73
2023/07/27 05:15:53;;;;;;;3.42;2.40;;;;;;;20.76;51.13;100635.41;5027147;28;20565;-72
2023/07/27 05:18:19;;;;;;;4.22;2.40;;;;;;;20.85;51.35;100648.53;5028363;28;20041;-72
2023/07/27 05:20:44;;;;;;;2.85;2.22;;;;;;;20.85;51.21;100638.78;5027064;28;20065;-73
2023/07/27 05:23:10;;;;;;;2.97;2.28;;;;;;;20.84;51.19;100639.78;5028525;28;20041;-72
2023/07/27 05:25:35;;;;;;;3.67;2.53;;;;;;;20.85;51.22;100628.19;5027371;28;20057;-67
2023/07/27 05:28:02;;;;;;;2.65;2.00;;;;;;;20.82;51.52;100636.47;5025511;28;20038;-68
2023/07/27 05:30:28;;;;;;;3.88;2.40;;;;;;;20.85;51.24;100635.31;5029232;28;20479;-68
2023/07/27 05:32:53;;;;;;;3.78;2.33;;;;;;;20.86;51.46;100631.66;5023647;28;20113;-69
2023/07/27 05:35:26;;;;;;;3.05;2.10;;;;;;;20.83;51.43;100630.22;5026280;28;20036;-68
2023/07/27 05:37:51;;;;;;;2.95;2.10;;;;;;;20.81;51.41;100633.00;5024311;28;20053;-69
2023/07/27 05:40:17;;;;;;;3.22;2.40;;;;;;;20.82;51.46;100625.88;5030309;28;20079;-68
2023/07/27 05:42:43;;;;;;;3.10;2.35;;;;;;;20.74;51.16;100610.97;5026108;28;20059;-68
2023/07/27 05:45:09;;;;;;;3.15;2.30;;;;;;;20.84;51.22;100620.44;5024279;28;20048;-68
2023/07/27 05:47:35;;;;;;;2.72;2.28;;;;;;;20.83;51.37;100627.56;5029262;28;20033;-68
2023/07/27 05:50:00;;;;;;;3.88;2.42;;;;;;;20.84;51.50;100618.59;5023825;28;21114;-68
2023/07/27 05:52:26;;;;;;;2.78;2.30;;;;;;;20.86;51.34;100626.34;5026884;28;20048;-68
2023/07/27 05:54:51;;;;;;;3.50;2.40;;;;;;;20.83;51.30;100627.56;5026627;28;20053;-68
2023/07/27 05:57:17;;;;;;;2.80;2.35;;;;;;;20.76;51.23;100608.13;5027086;28;20052;-67
2023/07/27 05:59:42;;;;;;;3.30;2.40;;;;;;;20.86;51.17;100615.78;5027679;28;20048;-68
2023/07/27 06:02:08;;;;;;;3.30;2.40;;;;;;;20.58;51.33;100570.75;5029897;28;20111;-68
2023/07/27 06:04:34;;;;;;;2.47;2.10;;;;;;;20.87;51.21;100620.06;5025130;28;20046;-68
2023/07/27 06:06:59;;;;;;;3.50;2.28;;;;;;;20.88;51.63;100630.44;5031120;28;20041;-69
2023/07/27 06:09:25;;;;;;;2.58;2.13;;;;;;;20.89;51.49;100625.97;5028489;28;20041;-67
2023/07/27 06:11:51;;;;;;;3.72;2.45;;;;;;;20.84;51.54;100617.78;5028341;28;20080;-68
2023/07/27 06:14:17;;;;;;;3.78;2.47;;;;;;;20.86;51.57;100610.47;5028684;28;20049;-67
2023/07/27 06:16:43;;;;;;;3.17;2.05;;;;;;;20.90;51.53;100617.00;5031208;28;20119;-68
2023/07/27 06:19:08;;;;;;;3.40;2.50;;;;;;;20.79;51.37;100595.34;5025345;28;20053;-70
2023/07/27 06:21:34;;;;;;;5.25;2.55;;;;;;;20.90;51.49;100609.88;5048329;28;20046;-71
2023/07/27 06:24:00;;;;;;;2.95;2.20;;;;;;;20.96;51.36;100603.00;5032847;28;20041;-71
2023/07/27 06:26:25;;;;;;;3.00;2.33;;;;;;;20.96;51.12;100601.16;5030474;28;20046;-70
2023/07/27 06:28:51;;;;;;;3.22;2.30;;;;;;;20.85;51.11;100569.97;5030660;28;20086;-71
2023/07/27 06:31:16;;;;;;;4.00;2.38;;;;;;;21.02;51.05;100571.31;5028379;28;20061;-72
2023/07/27 06:33:42;;;;;;;3.60;2.50;;;;;;;21.04;51.24;100576.41;5029719;28;20519;-68
2023/07/27 06:36:08;;;;;;;4.07;2.67;;;;;;;21.04;51.04;100576.41;5031514;28;20037;-70
2023/07/27 06:38:34;;;;;;;3.83;2.38;;;;;;;21.03;51.31;100572.94;5026806;28;20061;-70
2023/07/27 06:40:59;;;;;;;3.35;2.40;;;;;;;21.03;51.39;100569.47;5031830;28;20072;-69
2023/07/27 06:43:25;;;;;;;3.30;2.22;;;;;;;21.01;51.16;100568.84;5030088;28;20065;-69
2023/07/27 06:45:50;;;;;;;3.80;2.60;;;;;;;21.00;51.48;100568.00;5034949;28;20050;-70
2023/07/27 06:48:16;;;;;;;5.32;2.67;;;;;;;20.95;51.59;100549.25;5033342;28;20045;-70
2023/07/27 06:50:42;;;;;;;5.07;3.00;;;;;;;20.98;51.66;100562.09;5029221;28;20025;-70
2023/07/27 06:53:07;;;;;;;3.58;2.42;;;;;;;20.99;51.17;100547.84;5031569;28;20041;-69
2023/07/27 06:55:33;;;;;;;3.80;2.30;;;;;;;21.00;51.52;100552.13;5025558;28;20088;-70
2023/07/27 06:57:58;;;;;;;2.83;2.20;;;;;;;21.00;51.72;100551.31;5037229;28;20041;-71
2023/07/27 07:00:24;;;;;;;3.25;2.50;;;;;;;21.02;51.60;100549.31;5031997;28;20044;-71
2023/07/27 07:02:50;;;;;;;3.33;2.20;;;;;;;21.02;51.53;100544.00;5033327;28;20053;-70
2023/07/27 07:05:15;;;;;;;3.25;2.28;;;;;;;21.03;51.40;100540.34;5026814;28;20037;-70
2023/07/27 07:07:43;;;;;;;5.60;2.80;;;;;;;21.06;51.52;100545.25;5031428;28;20064;-71
2023/07/27 07:10:09;;;;;;;3.22;2.25;;;;;;;21.08;51.28;100543.22;5033909;28;20048;-71
2023/07/27 07:12:34;;;;;;;5.20;2.30;;;;;;;21.05;51.39;100535.69;5031776;28;20045;-70
2023/07/27 07:15:00;;;;;;;3.85;2.20;;;;;;;21.08;51.51;100535.28;5027543;28;20168;-71
2023/07/27 07:17:25;;;;;;;3.85;2.60;;;;;;;21.11;51.37;100535.72;5026966;28;20098;-69
2023/07/27 07:19:51;;;;;;;2.95;2.17;;;;;;;21.09;51.28;100523.69;5033779;28;20049;-70
2023/07/27 07:22:16;;;;;;;2.75;2.33;;;;;;;21.16;51.94;100521.06;5027294;28;20048;-69
2023/07/27 07:24:42;;;;;;;2.85;2.25;;;;;;;21.14;51.76;100521.25;5026210;28;20045;-69
2023/07/27 07:27:07;;;;;;;2.78;2.20;;;;;;;21.16;51.56;100526.34;5032812;28;20048;-70
2023/07/27 07:29:33;;;;;;;3.45;2.20;;;;;;;21.16;51.61;100523.72;5022824;28;20044;-70
2023/07/27 07:31:58;;;;;;;4.10;2.22;;;;;;;21.15;51.74;100520.25;5034027;28;20029;-69
2023/07/27 07:34:24;;;;;;;4.28;2.30;;;;;;;21.18;51.78;100509.25;5030419;28;20037;-70
2023/07/27 07:36:50;;;;;;;3.53;2.45;;;;;;;21.18;51.65;100506.59;5035418;28;20044;-70
2023/07/27 07:39:15;;;;;;;3.50;2.33;;;;;;;21.16;51.84;100513.13;5030710;28;20040;-70
2023/07/27 07:41:40;;;;;;;3.15;2.45;;;;;;;21.16;51.96;100500.69;5031203;28;20041;-71
2023/07/27 07:44:06;;;;;;;2.97;2.42;;;;;;;21.16;51.77;100498.03;5030952;28;20041;-70
2023/07/27 07:46:31;;;;;;;3.20;2.13;;;;;;;21.17;52.09;100499.69;5027399;28;20046;-71
2023/07/27 07:48:57;;;;;;;3.60;2.10;;;;;;;21.20;51.69;100494.00;5038345;28;20053;-69
2023/07/27 07:51:23;;;;;;;2.55;2.25;;;;;;;21.21;51.72;100478.94;5025918;28;20435;-70
2023/07/27 07:53:48;;;;;;;3.00;2.20;;;;;;;21.22;51.77;100486.69;5030525;28;20121;-69
2023/07/27 07:56:16;;;;;;;3.67;2.25;;;;;;;21.18;51.79;100476.66;5041363;28;20060;-71
2023/07/27 07:58:42;;;;;;;2.90;2.25;;;;;;;21.23;51.93;100468.97;5034035;28;20056;-71
2023/07/27 08:01:08;;;;;;;3.28;2.22;;;;;;;21.24;51.78;100470.59;5029113;28;20037;-71
2023/07/27 08:03:34;;;;;;;3.35;2.10;;;;;;;21.24;52.17;100467.94;5028218;28;20052;-71
2023/07/27 08:06:00;;;;;;;4.78;2.40;;;;;;;21.13;51.79;100450.78;5034253;28;20033;-71
2023/07/27 08:08:25;;;;;;;3.40;2.55;;;;;;;21.17;52.20;100449.38;5027275;28;20033;-71
2023/07/27 08:10:51;;;;;;;2.92;2.25;;;;;;;21.26;51.99;100460.66;5035713;28;20050;-71
2023/07/27 08:13:17;;;;;;;4.32;2.63;;;;;;;21.27;52.07;100457.81;5030200;28;20042;-71
2023/07/27 08:15:53;;;;;;;4.70;2.42;;;;;;;21.25;51.87;100446.59;5032859;28;20037;-71
2023/07/27 08:18:18;;;;;;;2.83;2.25;;;;;;;21.25;51.84;100451.06;5027834;28;20088;-71
2023/07/27 08:20:44;;;;;;;2.85;2.00;;;;;;;21.26;52.27;100452.72;5026585;28;20589;-71
2023/07/27 08:23:09;;;;;;;2.58;2.03;;;;;;;21.20;52.07;100443.69;5025336;28;20057;-72
2023/07/27 08:25:39;;;;;;;2.35;2.10;;;;;;;21.27;52.25;100451.69;5029511;28;20037;-72
2023/07/27 08:28:05;;;;;;;3.15;1.98;;;;;;;21.25;52.28;100443.13;5030420;28;20048;-71
2023/07/27 08:30:32;;;;;;;2.15;1.95;;;;;;;21.28;52.32;100434.78;5026593;28;20029;-71
2023/07/27 08:32:58;;;;;;;2.72;1.90;;;;;;;21.25;52.26;100429.88;5029058;28;20045;-70
2023/07/27 08:35:24;;;;;;;3.78;2.15;;;;;;;21.26;51.89;100432.34;5026990;28;20046;-72
2023/07/27 08:37:49;;;;;;;3.03;2.20;;;;;;;21.28;52.14;100434.78;5031492;28;20395;-71
2023/07/27 08:40:15;;;;;;;2.55;2.03;;;;;;;21.24;52.02;100428.22;5022159;28;20034;-72
2023/07/27 08:42:42;;;;;;;4.85;2.30;;;;;;;21.25;52.38;100432.53;5029736;28;20045;-72
2023/07/27 08:45:08;;;;;;;3.60;2.05;;;;;;;21.17;52.19;100411.47;5027688;28;20037;-72
2023/07/27 08:47:34;;;;;;;2.92;2.10;;;;;;;21.25;52.11;100428.06;5023872;28;20156;-71
2023/07/27 08:50:01;;;;;;;2.40;1.90;;;;;;;21.23;51.95;100418.66;5026205;28;20037;-70
2023/07/27 08:52:29;;;;;;;2.13;1.83;;;;;;;21.26;52.48;100429.69;5025868;28;20038;-71
2023/07/27 08:54:54;;;;;;;2.35;1.95;;;;;;;21.27;52.13;100436.63;5026470;28;20037;-70
2023/07/27 08:57:20;;;;;;;2.08;1.75;;;;;;;21.20;52.26;100409.28;5028316;28;20033;-71
2023/07/27 08:59:45;;;;;;;2.75;1.92;;;;;;;21.30;52.22;100425.63;5025811;28;20104;-71
2023/07/27 09:02:11;;;;;;;4.55;2.17;;;;;;;21.30;52.12;100419.50;5028398;28;20033;-71
2023/07/27 09:04:36;;;;;;;2.08;1.88;;;;;;;21.30;52.12;100416.88;5030547;28;20084;-71
2023/07/27 09:07:08;;;;;;;3.58;1.98;;;;;;;21.26;52.20;100405.03;5031208;28;20045;-72
2023/07/27 09:09:34;;;;;;;3.47;2.10;;;;;;;21.30;52.05;100408.91;5031905;28;20088;-72
2023/07/27 09:12:03;;;;;;;3.75;1.98;;;;;;;21.30;52.49;100411.56;5027758;28;20053;-71
2023/07/27 09:14:37;;;;;;;2.67;2.25;;;;;;;21.06;52.27;100368.69;5029424;28;20041;-72
2023/07/27 09:17:04;;;;;;;2.20;1.92;;;;;;;21.29;52.31;100399.34;5023468;28;20439;-71
2023/07/27 09:19:35;;;;;;;2.55;1.77;;;;;;;21.29;52.26;100399.34;5024581;28;20038;-71
2023/07/27 09:22:02;;;;;;;2.67;2.10;;;;;;;21.32;52.18;100394.44;5026061;28;20121;-72
2023/07/27 09:24:31;;;;;;;1.95;1.77;;;;;;;21.31;52.37;100390.19;5031267;28;20110;-72
2023/07/27 09:26:57;;;;;;;2.15;1.77;;;;;;;21.30;52.09;100391.19;5026322;28;20040;-70
2023/07/27 09:29:22;;;;;;;3.80;2.35;;;;;;;21.31;52.55;100395.47;5025853;28;20041;-71
2023/07/27 09:31:50;;;;;;;2.78;2.03;;;;;;;21.29;52.24;100394.03;5026565;28;20029;-71
2023/07/27 09:34:17;;;;;;;1.92;1.73;;;;;;;21.24;52.34;100378.75;5025417;28;20060;-72
2023/07/27 09:36:43;;;;;;;2.58;1.95;;;;;;;21.34;52.20;100391.59;5031546;28;20091;-72
2023/07/27 09:39:09;;;;;;;2.50;1.75;;;;;;;21.34;52.23;100389.78;5032447;28;20614;-72
2023/07/27 09:41:36;;;;;;;2.33;1.70;;;;;;;21.34;52.13;100392.41;5034274;28;20095;-72
2023/07/27 09:44:02;;;;;;;3.33;1.70;;;;;;;21.29;52.26;100367.56;5035548;28;20769;-70
2023/07/27 09:46:29;;;;;;;2.63;1.73;;;;;;;21.30;52.32;100374.50;5030046;28;20037;-70
2023/07/27 09:48:57;;;;;;;2.60;1.95;;;;;;;21.36;52.37;100382.47;5027264;28;20095;-70
2023/07/27 09:51:24;;;;;;;2.72;2.30;;;;;;;21.34;52.43;100379.19;5035244;28;20064;-70
2023/07/27 09:53:51;;;;;;;3.03;2.72;;;;;;;21.36;52.25;100378.97;5033031;28;20065;-71
2023/07/27 09:56:17;;;;;;;3.15;1.98;;;;;;;21.35;52.77;100361.44;5027696;28;20042;-71
2023/07/27 09:58:46;;;;;;;2.35;1.88;;;;;;;21.28;52.69;100364.09;5028832;28;20120;-72
2023/07/27 10:01:12;;;;;;;3.28;1.80;;;;;;;21.26;52.65;100360.84;5037298;28;20045;-72
2023/07/27 10:03:38;;;;;;;5.55;2.30;;;;;;;21.36;52.59;100378.97;5034954;28;20054;-72
2023/07/27 10:06:05;;;;;;;1.92;1.73;;;;;;;21.32;53.08;100375.91;5038529;28;20470;-72
2023/07/27 10:08:33;;;;;;;1.73;1.60;;;;;;;21.35;52.89;100375.50;5047640;28;20025;-71
2023/07/27 10:11:02;;;;;;;2.28;1.85;;;;;;;21.35;52.93;100374.69;5037165;28;20618;-72
2023/07/27 10:13:28;;;;;;;2.40;1.83;;;;;;;21.35;52.49;100367.56;5035734;28;20029;-71
2023/07/27 10:15:55;;;;;;;1.65;1.40;;;;;;;21.35;52.41;100369.41;5026865;28;20175;-71
2023/07/27 10:18:26;;;;;;;2.00;1.80;;;;;;;21.33;52.93;100361.66;5027141;28;20068;-71
2023/07/27 10:20:55;;;;;;;1.73;1.52;;;;;;;21.35;53.08;100367.56;5025993;28;20041;-72
2023/07/27 10:23:28;;;;;;;2.53;1.60;;;;;;;21.36;52.77;100361.28;5044230;28;20041;-72
2023/07/27 10:25:56;;;;;;;1.52;1.42;;;;;;;21.35;53.04;100367.56;5026898;28;20045;-71
2023/07/27 10:28:43;;;;;;;2.63;1.60;;;;;;;21.34;53.09;100367.78;5028477;28;20048;-71
2023/07/27 10:31:23;;;;;;;1.83;1.65;;;;;;;21.35;52.97;100367.56;5039379;28;20033;-72
2023/07/27 10:34:16;;;;;;;1.83;1.40;;;;;;;21.35;53.03;100364.09;5033349;28;20033;-71
2023/07/27 10:37:08;;;;;;;1.98;1.83;;;;;;;21.34;53.30;100365.13;5019307;28;20479;-70
2023/07/27 10:39:50;;;;;;;2.05;1.45;;;;;;;21.35;53.12;100359.63;5030258;28;20499;-71
2023/07/27 10:42:24;;;;;;;1.77;1.58;;;;;;;21.18;53.27;100326.56;5048071;28;20034;-71
2023/07/27 10:44:54;;;;;;;2.45;1.42;;;;;;;21.34;53.13;100359.81;5027688;28;20065;-71
2023/07/27 10:47:19;;;;;;;;;;;;;;;21.36;53.29;100361.28;5032121;28;20037;-71
2023/07/27 10:49:49;;;;;;;1.90;1.70;;;;;;;21.29;53.21;100354.31;5030838;28;19943;-71
2023/07/27 10:52:16;;;;;;;;;;;;;;;21.34;53.15;100350.03;5033166;28;20072;-71
2023/07/27 10:54:43;;;;;;;1.75;1.65;;;;;;;21.34;53.24;100346.56;5033124;28;20027;-73
2023/07/27 10:57:10;;;;;;;2.10;1.80;;;;;;;21.21;53.58;100336.75;5032148;28;20068;-73
2023/07/27 10:59:38;;;;;;;1.83;1.52;;;;;;;21.22;53.55;100332.28;5034364;28;20088;-72
2023/07/27 11:02:14;;;;;;;2.90;2.05;;;;;;;21.26;53.72;100334.34;5030128;28;20045;-73
2023/07/27 11:04:41;;;;;;;2.25;2.05;;;;;;;21.31;53.93;100337.22;5033284;28;20053;-71
2023/07/27 11:07:09;;;;;;;2.00;1.80;;;;;;;21.28;53.71;100334.16;5031545;28;20052;-70
2023/07/27 11:09:35;;;;;;;1.88;1.63;;;;;;;21.27;53.72;100332.53;5031397;28;20037;-70
2023/07/27 11:12:01;;;;;;;1.90;1.63;;;;;;;21.27;53.99;100337.81;5026240;28;20037;-70
2023/07/27 11:14:27;;;;;;;1.98;1.60;;;;;;;21.26;54.36;100333.53;5031479;28;20041;-71
2023/07/27 11:16:53;;;;;;;2.67;1.90;;;;;;;21.15;53.89;100312.91;5032860;28;20060;-70
2023/07/27 11:19:18;;;;;;;3.08;1.70;;;;;;;21.25;54.35;100332.72;5030366;28;20072;-70
2023/07/27 11:21:44;;;;;;;3.17;1.73;;;;;;;21.24;54.26;100330.25;5033516;28;20046;-71
2023/07/27 11:24:10;;;;;;;7.00;2.00;;;;;;;21.24;54.01;100327.59;5030154;28;20045;-70
2023/07/27 11:26:37;;;;;;;2.53;1.83;;;;;;;21.21;53.99;100328.81;5032093;28;20044;-71